createdAt,value
2019-05-07T00:01:34.141Z,27.33
2019-05-07T00:04:07.407Z,27.03
2019-05-07T00:06:40.539Z,28.17
2019-05-07T00:09:14.481Z,25.83
2019-05-07T00:11:47.116Z,25.67
2019-05-07T00:14:19.803Z,24.27
2019-05-07T00:16:53.473Z,27.30
2019-05-07T00:19:27.314Z,26.57
2019-05-07T00:22:02.210Z,25.60
2019-05-07T00:24:35.295Z,28.42
2019-05-07T00:27:08.805Z,24.63
2019-05-07T00:29:42.930Z,23.07
2019-05-07T00:32:15.698Z,22.77
2019-05-07T00:34:57.241Z,22.57
2019-05-07T00:37:39.274Z,22.10
2019-05-07T00:40:33.528Z,22.77
2019-05-07T00:43:16.929Z,21.23
2019-05-07T00:45:56.812Z,24.00
2019-05-07T00:48:30.025Z,28.20
2019-05-07T00:51:08.088Z,29.17
2019-05-07T00:53:42.388Z,24.07
2019-05-07T00:56:15.137Z,26.07
2019-05-07T00:58:47.732Z,24.30
2019-05-07T01:01:22.520Z,24.37
2019-05-07T01:03:56.156Z,27.47
2019-05-07T01:06:28.764Z,26.47
2019-05-07T01:09:03.137Z,28.47
2019-05-07T01:11:36.310Z,28.87
2019-05-07T01:14:08.974Z,26.87
2019-05-07T01:16:42.198Z,26.80
2019-05-07T01:19:14.927Z,26.47
2019-05-07T01:21:49.264Z,27.37
2019-05-07T01:24:23.266Z,26.77
2019-05-07T01:26:56.205Z,25.23
2019-05-07T01:29:28.912Z,24.97
2019-05-07T01:32:15.369Z,27.70
2019-05-07T01:34:54.595Z,26.73
2019-05-07T01:37:27.311Z,29.67
2019-05-07T01:40:04.770Z,26.87
2019-05-07T01:42:37.969Z,26.93
2019-05-07T01:45:13.608Z,31.65
2019-05-07T01:47:46.213Z,29.23
2019-05-07T01:50:19.782Z,28.23
2019-05-07T01:52:52.431Z,27.73
2019-05-07T01:55:25.014Z,28.07
2019-05-07T01:57:58.422Z,31.37
2019-05-07T02:00:32.641Z,27.07
2019-05-07T02:03:15.752Z,32.63
2019-05-07T02:05:57.243Z,28.53
2019-05-07T02:08:45.327Z,27.47
2019-05-07T02:11:21.970Z,26.60
2019-05-07T02:13:54.577Z,28.20
2019-05-07T02:16:27.267Z,30.63
2019-05-07T02:19:01.984Z,29.43
2019-05-07T02:21:35.219Z,28.33
2019-05-07T02:24:07.763Z,29.53
2019-05-07T02:26:42.523Z,29.27
2019-05-07T02:29:15.351Z,30.20
2019-05-07T02:31:47.902Z,29.30
2019-05-07T02:34:23.360Z,29.27
2019-05-07T02:36:56.425Z,30.60
2019-05-07T02:39:43.998Z,39.08
2019-05-07T02:42:17.090Z,34.83
2019-05-07T02:44:55.350Z,38.87
2019-05-07T02:47:28.939Z,31.20
2019-05-07T02:50:09.299Z,31.20
2019-05-07T02:52:55.693Z,28.43
2019-05-07T02:55:35.189Z,26.90
2019-05-07T02:58:08.518Z,28.63
2019-05-07T03:00:43.473Z,27.47
2019-05-07T03:03:16.617Z,29.10
2019-05-07T03:05:49.471Z,29.40
2019-05-07T03:08:26.573Z,28.70
2019-05-07T03:11:03.046Z,27.37
2019-05-07T03:13:36.652Z,27.13
2019-05-07T03:16:09.425Z,30.33
2019-05-07T03:18:43.855Z,29.47
2019-05-07T03:21:47.669Z,30.90
2019-05-07T03:24:34.460Z,32.50
2019-05-07T03:27:07.173Z,28.80
2019-05-07T03:29:45.703Z,26.40
2019-05-07T03:32:37.816Z,27.50
2019-05-07T03:35:19.133Z,28.33
2019-05-07T03:37:54.652Z,34.60
2019-05-07T03:40:32.656Z,33.67
2019-05-07T03:43:08.774Z,31.73
2019-05-07T03:46:03.600Z,38.13
2019-05-07T03:48:47.953Z,39.22
2019-05-07T03:51:23.543Z,38.47
2019-05-07T03:53:57.637Z,38.57
2019-05-07T03:56:33.031Z,41.28
2019-05-07T03:59:05.807Z,35.27
2019-05-07T04:01:39.216Z,36.80
2019-05-07T04:04:13.207Z,38.13
2019-05-07T04:06:48.190Z,35.17
2019-05-07T04:09:23.902Z,37.40
2019-05-07T04:11:57.794Z,38.93
2019-05-07T04:14:34.552Z,36.80
2019-05-07T04:17:22.279Z,32.33
2019-05-07T04:19:58.529Z,33.10
2019-05-07T04:22:34.275Z,29.90
2019-05-07T04:25:30.091Z,31.33
2019-05-07T04:28:23.575Z,29.00
2019-05-07T04:30:58.913Z,33.07
2019-05-07T04:33:37.108Z,34.77
2019-05-07T04:36:16.085Z,31.90
2019-05-07T04:38:49.053Z,32.67
2019-05-07T04:41:23.343Z,34.03
2019-05-07T04:43:56.234Z,35.27
2019-05-07T04:46:28.972Z,37.40
2019-05-07T04:49:03.695Z,36.47
2019-05-07T04:52:03.663Z,36.97
2019-05-07T04:54:37.382Z,36.73
2019-05-07T04:57:25.299Z,41.15
2019-05-07T05:00:02.892Z,33.77
2019-05-07T05:02:53.073Z,32.63
2019-05-07T05:05:26.278Z,32.83
2019-05-07T05:07:58.990Z,35.63
2019-05-07T05:10:33.709Z,30.87
2019-05-07T05:13:06.561Z,29.90
2019-05-07T05:15:39.857Z,29.53
2019-05-07T05:18:12.856Z,30.10
2019-05-07T05:21:07.241Z,34.45
2019-05-07T05:23:46.906Z,33.10
2019-05-07T05:26:21.865Z,30.30
2019-05-07T05:28:55.548Z,30.77
2019-05-07T05:31:28.784Z,31.00
2019-05-07T05:34:03.716Z,29.63
2019-05-07T05:36:37.470Z,30.47
2019-05-07T05:39:13.134Z,29.33
2019-05-07T05:41:56.848Z,31.23
2019-05-07T05:44:32.978Z,34.08
2019-05-07T05:47:06.369Z,38.55
2019-05-07T05:49:39.015Z,30.50
2019-05-07T05:52:22.209Z,27.83
2019-05-07T05:55:02.533Z,26.57
2019-05-07T05:57:59.311Z,28.33
2019-05-07T06:00:37.407Z,27.97
2019-05-07T06:03:28.428Z,28.47
2019-05-07T06:06:12.771Z,29.73
2019-05-07T06:08:58.569Z,35.13
2019-05-07T06:11:54.290Z,29.27
2019-05-07T06:14:39.773Z,27.63
2019-05-07T06:17:34.837Z,27.10
2019-05-07T06:20:14.279Z,23.27
2019-05-07T06:23:06.457Z,23.30
2019-05-07T06:25:42.803Z,23.30
2019-05-07T06:28:16.221Z,24.08
2019-05-07T06:30:49.821Z,21.43
2019-05-07T06:33:23.440Z,21.70
2019-05-07T06:35:58.033Z,20.93
2019-05-07T06:38:38.103Z,20.00
2019-05-07T06:42:24.422Z,19.13
2019-05-07T06:45:05.308Z,19.20
2019-05-07T06:47:38.001Z,19.40
2019-05-07T06:50:12.498Z,18.37
2019-05-07T06:52:48.335Z,17.70
2019-05-07T06:55:22.829Z,16.60
2019-05-07T06:57:55.741Z,15.47
2019-05-07T07:00:34.341Z,16.60
2019-05-07T07:03:16.158Z,14.33
2019-05-07T07:05:55.061Z,16.50
2019-05-07T07:08:33.101Z,19.65
2019-05-07T07:11:16.421Z,15.30
2019-05-07T07:13:51.879Z,15.83
2019-05-07T07:16:24.532Z,15.00
2019-05-07T07:18:57.371Z,15.00
2019-05-07T07:21:30.080Z,14.43
2019-05-07T07:24:03.175Z,10.57
2019-05-07T07:26:36.729Z,13.40
2019-05-07T07:29:12.694Z,13.10
2019-05-07T07:31:52.647Z,16.17
2019-05-07T07:34:27.374Z,14.97
2019-05-07T07:37:15.202Z,14.97
2019-05-07T07:40:13.540Z,12.30
2019-05-07T07:42:46.571Z,12.10
2019-05-07T07:45:23.137Z,12.33
2019-05-07T07:47:55.656Z,13.70
2019-05-07T07:50:28.332Z,12.80
2019-05-07T07:53:02.600Z,13.77
2019-05-07T07:55:42.876Z,13.13
2019-05-07T07:58:34.245Z,15.57
2019-05-07T08:01:13.514Z,15.57
2019-05-07T08:03:46.266Z,15.47
2019-05-07T08:06:19.072Z,14.53
2019-05-07T08:08:53.055Z,14.70
2019-05-07T08:11:31.878Z,13.77
2019-05-07T08:14:06.791Z,13.47
2019-05-07T08:16:43.179Z,12.07
2019-05-07T08:19:21.862Z,13.40
2019-05-07T08:21:55.930Z,11.83
2019-05-07T08:24:28.601Z,13.02
2019-05-07T08:27:02.647Z,13.60
2019-05-07T08:29:36.571Z,11.20
2019-05-07T08:32:22.743Z,10.10
2019-05-07T08:35:02.997Z,11.03
2019-05-07T08:37:36.495Z,14.23
2019-05-07T08:40:09.758Z,13.87
2019-05-07T08:42:42.437Z,13.53
2019-05-07T08:45:24.973Z,13.90
2019-05-07T08:48:02.069Z,12.00
2019-05-07T08:50:35.226Z,10.93
2019-05-07T08:53:13.048Z,11.60
2019-05-07T08:55:46.012Z,13.23
2019-05-07T08:58:19.642Z,14.85
2019-05-07T09:00:53.897Z,13.10
2019-05-07T09:03:33.497Z,14.00
2019-05-07T09:06:07.181Z,13.17
2019-05-07T09:08:39.921Z,15.00
2019-05-07T09:11:13.308Z,12.37
2019-05-07T09:13:49.971Z,13.02
2019-05-07T09:16:24.279Z,11.80
2019-05-07T09:18:57.029Z,13.15
2019-05-07T09:21:29.626Z,13.03
2019-05-07T09:24:02.531Z,13.40
2019-05-07T09:26:45.538Z,13.30
2019-05-07T09:29:33.943Z,12.80
2019-05-07T09:32:26.408Z,12.70
2019-05-07T09:35:02.147Z,14.50
2019-05-07T09:37:35.101Z,14.30
2019-05-07T09:40:08.187Z,15.03
2019-05-07T09:42:42.989Z,16.97
2019-05-07T09:45:22.483Z,17.93
2019-05-07T09:47:55.404Z,15.27
2019-05-07T09:50:28.525Z,15.27
2019-05-07T09:53:04.316Z,16.37
2019-05-07T09:55:42.371Z,15.80
2019-05-07T09:58:15.587Z,14.87
2019-05-07T10:00:48.507Z,15.67
2019-05-07T10:03:22.775Z,16.57
2019-05-07T10:05:56.355Z,18.83
2019-05-07T10:08:31.813Z,17.70
2019-05-07T10:11:08.451Z,17.57
2019-05-07T10:13:52.490Z,17.93
2019-05-07T10:16:38.736Z,16.60
2019-05-07T10:19:11.443Z,14.60
2019-05-07T10:21:44.164Z,15.37
2019-05-07T10:24:18.105Z,13.47
2019-05-07T10:26:53.528Z,14.07
2019-05-07T10:29:27.558Z,10.83
2019-05-07T10:32:02.179Z,12.60
2019-05-07T10:34:37.410Z,11.27
2019-05-07T10:37:12.151Z,12.50
2019-05-07T10:39:45.319Z,12.37
2019-05-07T10:42:22.726Z,12.27
2019-05-07T10:45:13.125Z,12.53
2019-05-07T10:48:03.814Z,12.00
2019-05-07T10:50:39.354Z,12.53
2019-05-07T10:53:12.533Z,13.17
2019-05-07T10:55:46.418Z,13.90
2019-05-07T10:58:20.089Z,14.67
2019-05-07T11:01:03.017Z,16.23
2019-05-07T11:03:36.479Z,15.57
2019-05-07T11:06:11.847Z,13.63
2019-05-07T11:08:45.087Z,14.67
2019-05-07T11:11:17.839Z,15.33
2019-05-07T11:13:57.449Z,15.60
2019-05-07T11:16:39.254Z,16.30
2019-05-07T11:19:12.798Z,17.43
2019-05-07T11:21:46.548Z,15.57
2019-05-07T11:24:26.289Z,17.58
2019-05-07T11:26:59.686Z,16.90
2019-05-07T11:29:36.655Z,16.57
2019-05-07T11:32:15.739Z,16.57
2019-05-07T11:34:49.737Z,14.73
2019-05-07T11:37:22.627Z,16.33
2019-05-07T11:39:57.026Z,15.10
2019-05-07T11:42:38.002Z,18.30
2019-05-07T11:45:22.748Z,16.10
2019-05-07T11:48:01.854Z,14.87
2019-05-07T11:51:00.496Z,14.30
2019-05-07T11:54:01.964Z,16.27
2019-05-07T11:56:35.100Z,16.60
2019-05-07T11:59:08.253Z,15.67
2019-05-07T12:01:48.362Z,15.70
2019-05-07T12:04:22.346Z,15.93
2019-05-07T12:06:55.854Z,17.47
2019-05-07T12:09:29.254Z,15.50
2019-05-07T12:12:02.547Z,15.00
2019-05-07T12:14:38.335Z,17.00
2019-05-07T12:17:11.974Z,16.17
2019-05-07T12:19:46.026Z,16.30
2019-05-07T12:22:25.176Z,15.67
2019-05-07T12:24:57.917Z,14.30
2019-05-07T12:27:32.349Z,13.33
2019-05-07T12:30:12.047Z,14.50
2019-05-07T12:32:56.281Z,12.07
2019-05-07T12:35:28.982Z,13.77
2019-05-07T12:38:02.160Z,14.33
2019-05-07T12:40:35.720Z,13.52
2019-05-07T12:43:10.623Z,13.50
2019-05-07T12:45:44.346Z,13.40
2019-05-07T12:48:16.953Z,12.47
2019-05-07T12:50:52.620Z,13.40
2019-05-07T12:53:35.428Z,9.97
2019-05-07T12:56:11.118Z,14.55
2019-05-07T12:58:47.759Z,11.00
2019-05-07T13:01:45.823Z,11.00
2019-05-07T13:04:22.492Z,11.55
2019-05-07T13:07:13.105Z,11.30
2019-05-07T13:09:45.775Z,11.47
2019-05-07T13:12:21.613Z,11.37
2019-05-07T13:14:55.422Z,9.67
2019-05-07T13:17:28.222Z,11.83
2019-05-07T13:20:01.887Z,10.83
2019-05-07T13:22:35.710Z,11.20
2019-05-07T13:25:11.886Z,9.57
2019-05-07T13:27:45.715Z,12.07
2019-05-07T13:30:22.247Z,12.20
2019-05-07T13:33:02.048Z,11.17
2019-05-07T13:35:37.414Z,12.77
2019-05-07T13:38:21.074Z,14.13
2019-05-07T13:41:02.426Z,12.33
2019-05-07T13:44:02.916Z,14.07
2019-05-07T13:46:45.137Z,14.67
2019-05-07T13:49:18.858Z,14.70
2019-05-07T13:52:03.269Z,13.33
2019-05-07T13:54:41.943Z,13.00
2019-05-07T13:57:15.857Z,12.53
2019-05-07T13:59:49.931Z,11.33
2019-05-07T14:02:33.551Z,11.45
2019-05-07T14:05:06.967Z,9.50
2019-05-07T14:08:12.027Z,11.07
2019-05-07T14:10:54.788Z,11.57
2019-05-07T14:13:28.254Z,10.60
2019-05-07T14:16:11.881Z,10.77
2019-05-07T14:18:46.025Z,10.33
2019-05-07T14:21:22.557Z,10.90
2019-05-07T14:24:04.321Z,10.50
2019-05-07T14:26:37.336Z,9.77
2019-05-07T14:29:12.962Z,10.50
2019-05-07T14:31:52.418Z,8.70
2019-05-07T14:34:34.905Z,8.43
2019-05-07T14:37:19.210Z,8.70
2019-05-07T14:39:55.993Z,9.40
2019-05-07T14:42:41.835Z,8.70
2019-05-07T14:45:18.356Z,7.93
2019-05-07T14:47:52.318Z,8.13
2019-05-07T14:50:28.459Z,9.17
2019-05-07T14:53:06.528Z,8.65
2019-05-07T14:55:46.018Z,7.73
2019-05-07T14:58:20.968Z,7.40
2019-05-07T15:00:55.837Z,8.77
2019-05-07T15:03:32.020Z,9.23
2019-05-07T15:06:05.560Z,8.97
2019-05-07T15:08:42.969Z,7.60
2019-05-07T15:11:18.474Z,8.23
2019-05-07T15:14:05.293Z,8.67
2019-05-07T15:16:38.455Z,9.00
2019-05-07T15:19:14.730Z,9.75
2019-05-07T15:21:51.743Z,9.47
2019-05-07T15:24:26.897Z,9.43
2019-05-07T15:27:03.535Z,8.90
2019-05-07T15:29:36.303Z,9.00
2019-05-07T15:32:12.608Z,8.90
2019-05-07T15:34:46.706Z,8.47
2019-05-07T15:37:20.924Z,9.03
2019-05-07T15:39:57.422Z,8.00
2019-05-07T15:42:33.399Z,8.40
2019-05-07T15:45:18.239Z,8.00
2019-05-07T15:47:56.512Z,8.27
2019-05-07T15:50:32.052Z,8.00
2019-05-07T15:53:15.798Z,8.20
2019-05-07T15:55:48.633Z,8.40
2019-05-07T15:58:22.821Z,8.17
2019-05-07T16:01:02.167Z,8.07
2019-05-07T16:03:46.242Z,8.10
2019-05-07T16:06:25.057Z,8.03
2019-05-07T16:09:07.512Z,8.23
2019-05-07T16:11:50.678Z,7.83
2019-05-07T16:14:28.148Z,8.77
2019-05-07T16:17:18.173Z,7.90
2019-05-07T16:19:56.068Z,7.10
2019-05-07T16:22:39.663Z,8.13
2019-05-07T16:25:22.357Z,8.00
2019-05-07T16:28:04.431Z,8.10
2019-05-07T16:30:43.189Z,8.67
2019-05-07T16:33:22.282Z,8.50
2019-05-07T16:36:15.447Z,8.95
2019-05-07T16:38:53.834Z,8.80
2019-05-07T16:41:26.604Z,9.48
2019-05-07T16:44:02.722Z,8.83
2019-05-07T16:46:36.531Z,8.63
2019-05-07T16:49:13.577Z,8.07
2019-05-07T16:52:02.950Z,7.73
2019-05-07T16:54:38.462Z,8.90
2019-05-07T16:57:33.369Z,7.87
2019-05-07T17:00:17.348Z,8.63
2019-05-07T17:02:57.112Z,8.38
2019-05-07T17:05:32.121Z,8.03
2019-05-07T17:08:12.950Z,7.33
2019-05-07T17:10:54.757Z,7.47
2019-05-07T17:13:35.327Z,7.47
2019-05-07T17:16:12.640Z,7.53
2019-05-07T17:18:55.284Z,7.73
2019-05-07T17:21:32.410Z,7.70
2019-05-07T17:24:12.901Z,8.47
2019-05-07T17:26:46.128Z,8.48
2019-05-07T17:29:22.694Z,7.17
2019-05-07T17:31:57.155Z,7.77
2019-05-07T17:34:38.214Z,7.57
2019-05-07T17:37:12.644Z,8.37
2019-05-07T17:39:49.852Z,8.33
2019-05-07T17:42:25.349Z,8.20
2019-05-07T17:44:59.499Z,8.53
2019-05-07T17:47:36.662Z,8.40
2019-05-07T17:50:14.778Z,8.80
2019-05-07T17:52:53.328Z,7.77
2019-05-07T17:55:32.966Z,8.20
2019-05-07T17:58:07.870Z,8.27
2019-05-07T18:00:45.315Z,13.43
2019-05-07T18:03:25.249Z,8.40
2019-05-07T18:05:58.032Z,8.43
2019-05-07T18:08:33.321Z,8.00
2019-05-07T18:11:18.534Z,8.47
2019-05-07T18:13:54.259Z,8.70
2019-05-07T18:16:36.775Z,8.27
2019-05-07T18:19:13.531Z,7.87
2019-05-07T18:21:48.971Z,9.40
2019-05-07T18:24:25.936Z,9.03
2019-05-07T18:27:03.585Z,8.20
2019-05-07T18:29:37.958Z,8.67
2019-05-07T18:32:12.932Z,8.27
2019-05-07T18:34:45.875Z,7.80
2019-05-07T18:37:22.875Z,8.23
2019-05-07T18:40:02.526Z,7.27
2019-05-07T18:42:41.743Z,10.57
2019-05-07T18:45:17.031Z,8.40
2019-05-07T18:47:51.770Z,7.63
2019-05-07T18:50:24.616Z,8.07
2019-05-07T18:52:59.129Z,7.00
2019-05-07T18:55:33.699Z,8.10
2019-05-07T18:58:09.379Z,8.13
2019-05-07T19:00:48.524Z,8.13
2019-05-07T19:03:22.075Z,8.93
2019-05-07T19:05:56.055Z,7.57
2019-05-07T19:08:32.678Z,7.87
2019-05-07T19:11:09.329Z,7.57
2019-05-07T19:13:44.004Z,8.30
2019-05-07T19:16:19.935Z,7.97
2019-05-07T19:18:53.984Z,8.20
2019-05-07T19:21:28.250Z,7.87
2019-05-07T19:24:02.402Z,7.93
2019-05-07T19:26:38.225Z,7.20
2019-05-07T19:29:12.437Z,8.03
2019-05-07T19:31:45.477Z,7.27
2019-05-07T19:34:21.815Z,7.87
2019-05-07T19:36:57.534Z,8.13
2019-05-07T19:39:32.496Z,7.70
2019-05-07T19:42:06.579Z,8.17
2019-05-07T19:44:42.336Z,7.90
2019-05-07T19:47:18.119Z,7.93
2019-05-07T19:49:53.904Z,7.97
2019-05-07T19:52:28.705Z,6.97
2019-05-07T19:55:09.316Z,7.83
2019-05-07T19:57:52.390Z,6.90
2019-05-07T20:00:29.039Z,7.53
2019-05-07T20:03:06.657Z,8.30
2019-05-07T20:05:42.194Z,7.20
2019-05-07T20:08:17.069Z,7.67
2019-05-07T20:10:59.514Z,6.73
2019-05-07T20:13:40.891Z,6.83
2019-05-07T20:16:25.080Z,8.10
2019-05-07T20:19:05.800Z,7.90
2019-05-07T20:21:38.421Z,7.47
2019-05-07T20:24:12.631Z,7.50
2019-05-07T20:26:45.825Z,8.07
2019-05-07T20:29:22.724Z,8.33
2019-05-07T20:31:57.251Z,8.57
2019-05-07T20:34:32.930Z,8.87
2019-05-07T20:37:07.591Z,8.13
2019-05-07T20:39:44.774Z,9.18
2019-05-07T20:42:19.736Z,7.80
2019-05-07T20:44:55.325Z,9.17
2019-05-07T20:47:29.513Z,8.03
2019-05-07T20:50:02.138Z,7.77
2019-05-07T20:52:47.326Z,7.80
2019-05-07T20:55:34.111Z,8.57
2019-05-07T20:58:07.619Z,7.53
2019-05-07T21:00:45.544Z,7.73
2019-05-07T21:03:19.659Z,7.80
2019-05-07T21:05:54.940Z,8.20
2019-05-07T21:08:27.544Z,8.57
2019-05-07T21:11:02.501Z,8.20
2019-05-07T21:13:36.450Z,7.80
2019-05-07T21:16:12.609Z,8.00
2019-05-07T21:18:47.433Z,7.90
2019-05-07T21:21:21.820Z,7.67
2019-05-07T21:23:56.243Z,7.47
2019-05-07T21:26:32.494Z,7.37
2019-05-07T21:29:06.647Z,7.23
2019-05-07T21:31:43.244Z,7.10
2019-05-07T21:34:17.490Z,6.53
2019-05-07T21:36:53.892Z,7.40
2019-05-07T21:39:26.636Z,7.00
2019-05-07T21:42:01.550Z,7.20
2019-05-07T21:44:34.177Z,7.43
2019-05-07T21:47:07.721Z,7.03
2019-05-07T21:49:43.031Z,6.73
2019-05-07T21:52:18.840Z,7.20
2019-05-07T21:55:04.263Z,6.30
2019-05-07T21:57:49.601Z,6.50
2019-05-07T22:00:48.801Z,7.10
2019-05-07T22:03:34.981Z,6.80
2019-05-07T22:06:15.832Z,6.63
2019-05-07T22:08:49.267Z,6.80
2019-05-07T22:11:23.024Z,6.67
2019-05-07T22:13:57.136Z,6.73
2019-05-07T22:16:32.884Z,6.23
2019-05-07T22:19:07.613Z,6.72
2019-05-07T22:21:42.947Z,6.00
2019-05-07T22:24:16.647Z,6.47
2019-05-07T22:26:50.643Z,6.60
2019-05-07T22:29:24.289Z,6.07
2019-05-07T22:32:18.512Z,5.77
2019-05-07T22:34:56.754Z,5.83
2019-05-07T22:37:29.394Z,6.45
2019-05-07T22:40:02.796Z,6.05
2019-05-07T22:42:38.530Z,5.30
2019-05-07T22:45:14.763Z,5.50
2019-05-07T22:47:47.253Z,5.63
2019-05-07T22:50:22.679Z,5.27
2019-05-07T22:52:55.343Z,5.13
2019-05-07T22:55:28.953Z,5.53
2019-05-07T22:58:17.981Z,5.27
2019-05-07T23:00:57.087Z,5.67
2019-05-07T23:03:32.135Z,5.23
2019-05-07T23:06:06.410Z,5.20
2019-05-07T23:08:42.370Z,5.23
2019-05-07T23:11:16.738Z,5.20
2019-05-07T23:13:54.396Z,5.00
2019-05-07T23:16:29.949Z,5.37
2019-05-07T23:19:02.870Z,4.70
2019-05-07T23:21:35.455Z,4.93
2019-05-07T23:24:08.051Z,4.63
2019-05-07T23:26:50.273Z,4.53
2019-05-07T23:29:24.660Z,5.17
2019-05-07T23:31:58.093Z,4.53
2019-05-07T23:34:32.738Z,4.50
2019-05-07T23:37:05.315Z,5.10
2019-05-07T23:39:42.535Z,5.07
2019-05-07T23:42:20.509Z,4.33
2019-05-07T23:44:54.622Z,4.72
2019-05-07T23:47:31.623Z,4.70
2019-05-07T23:50:09.095Z,5.07
2019-05-07T23:52:44.163Z,4.73
2019-05-07T23:55:17.564Z,4.43
2019-05-07T23:57:52.376Z,4.43
